createdAt,value
2023-06-09T00:04:25.455Z,5.4
2023-06-09T00:10:11.271Z,5
2023-06-09T00:15:56.101Z,4.8
2023-06-09T00:21:40.977Z,5.2
2023-06-09T00:27:25.769Z,5.2
2023-06-09T00:33:10.863Z,5.1
2023-06-09T00:38:55.956Z,4.9
2023-06-09T00:44:40.569Z,5
2023-06-09T00:50:26.467Z,5.1
2023-06-09T00:56:11.552Z,4.9
2023-06-09T01:01:56.413Z,5.4
2023-06-09T01:07:44.478Z,4.9
2023-06-09T01:13:35.493Z,5.1
2023-06-09T01:19:25.173Z,4.8
2023-06-09T01:25:13.284Z,5.2
2023-06-09T01:30:59.420Z,5
2023-06-09T01:36:45.164Z,5.1
2023-06-09T01:42:29.870Z,5.3
2023-06-09T01:48:18.732Z,5
2023-06-09T01:54:05.221Z,5.1
2023-06-09T01:59:54.715Z,5.3
2023-06-09T02:05:40.351Z,5
2023-06-09T02:11:25.649Z,4.9
2023-06-09T02:17:11.774Z,5.1
2023-06-09T02:22:56.773Z,5
2023-06-09T02:28:42.832Z,5.4
2023-06-09T02:34:27.712Z,5.1
2023-06-09T02:40:13.689Z,5.4
2023-06-09T02:45:58.711Z,5.3
2023-06-09T02:51:43.609Z,5.1
2023-06-09T02:57:29.154Z,5.5
2023-06-09T03:03:15.357Z,5.2
2023-06-09T03:09:01.325Z,5.5
2023-06-09T03:14:46.205Z,5.5
2023-06-09T03:20:32.097Z,5.4
2023-06-09T03:26:16.964Z,5.1
2023-06-09T03:32:01.775Z,5.7
2023-06-09T03:37:46.553Z,5.4
2023-06-09T03:43:31.538Z,5.3
2023-06-09T03:49:16.420Z,5.4
2023-06-09T03:55:01.442Z,5.2
2023-06-09T04:00:46.477Z,5.6
2023-06-09T04:06:32.734Z,5.3
2023-06-09T04:12:18.429Z,5.5
2023-06-09T04:18:04.949Z,5.5
2023-06-09T04:23:53.627Z,5.6
2023-06-09T04:29:38.638Z,5.7
2023-06-09T04:35:23.283Z,5.6
2023-06-09T04:41:08.380Z,9.6
2023-06-09T04:46:53.704Z,10.2
2023-06-09T04:52:38.617Z,11.9
2023-06-09T04:58:23.608Z,11.3
2023-06-09T05:04:08.983Z,12.5
2023-06-09T05:09:53.781Z,12.2
2023-06-09T05:15:38.942Z,12.7
2023-06-09T05:21:23.798Z,13.1
2023-06-09T05:27:08.845Z,11.7
2023-06-09T05:32:53.770Z,11.6
2023-06-09T05:38:38.729Z,12.1
2023-06-09T05:44:23.769Z,11.8
2023-06-09T05:50:09.976Z,11.1
2023-06-09T05:55:55.162Z,10.9
2023-06-09T06:01:40.139Z,10.2
2023-06-09T06:07:25.513Z,9.7
2023-06-09T06:13:10.404Z,9.4
2023-06-09T06:18:55.372Z,9
2023-06-09T06:24:40.599Z,8.2
2023-06-09T06:30:26.520Z,9
2023-06-09T06:36:12.112Z,7.5
2023-06-09T06:41:57.186Z,7.4
2023-06-09T06:47:42.746Z,7.1
2023-06-09T06:53:28.939Z,6.3
2023-06-09T06:59:13.760Z,5.3
2023-06-09T07:04:58.544Z,5
2023-06-09T07:10:43.944Z,5
2023-06-09T07:16:28.840Z,5.5
2023-06-09T07:22:13.951Z,5.2
2023-06-09T07:27:59.861Z,5.1
2023-06-09T07:33:44.853Z,5.6
2023-06-09T07:39:29.723Z,5.3
2023-06-09T07:45:15.476Z,5.1
2023-06-09T07:51:04.488Z,5.7
2023-06-09T07:56:49.495Z,5.2
2023-06-09T08:02:34.584Z,5.1
2023-06-09T08:08:19.797Z,5.4
2023-06-09T08:14:04.610Z,4.8
2023-06-09T08:19:49.654Z,5
2023-06-09T08:25:34.725Z,4.6
2023-06-09T08:31:19.616Z,4.8
2023-06-09T08:37:06.250Z,4.7
2023-06-09T08:42:52.264Z,4.4
2023-06-09T08:48:39.737Z,4.8
2023-06-09T08:54:25.114Z,5
2023-06-09T09:00:12.295Z,4.9
2023-06-09T09:05:57.310Z,4.8
2023-06-09T09:11:42.345Z,4.7
2023-06-09T09:17:28.274Z,4.8
2023-06-09T09:23:13.557Z,4.5
2023-06-09T09:28:58.930Z,4.4
2023-06-09T09:34:44.149Z,4.4
2023-06-09T09:40:28.970Z,4.2
2023-06-09T09:46:14.119Z,4.1
2023-06-09T09:51:59.786Z,4.3
2023-06-09T09:57:46.701Z,4.1
2023-06-09T10:03:32.332Z,4.3
2023-06-09T10:09:17.867Z,4
2023-06-09T10:15:02.622Z,4
2023-06-09T10:20:48.009Z,3.7
2023-06-09T10:26:33.115Z,4
2023-06-09T10:32:19.018Z,3.9
2023-06-09T10:38:09.125Z,4
2023-06-09T10:44:05.385Z,3.9
2023-06-09T10:49:50.402Z,3.9
2023-06-09T10:55:35.556Z,4.1
2023-06-09T11:01:21.872Z,4.2
2023-06-09T11:07:16.861Z,3.8
2023-06-09T11:13:02.076Z,3.9
2023-06-09T11:18:47.548Z,3.7
2023-06-09T11:24:37.682Z,3.8
2023-06-09T11:30:22.766Z,4.1
2023-06-09T11:36:09.264Z,4.2
2023-06-09T11:41:59.393Z,4.4
2023-06-09T11:47:44.825Z,4
2023-06-09T11:53:29.614Z,3.9
2023-06-09T11:59:14.954Z,3.6
2023-06-09T12:05:01.137Z,3.7
2023-06-09T12:10:46.296Z,3.9
2023-06-09T12:16:31.705Z,3.8
2023-06-09T12:22:16.768Z,3.8
2023-06-09T12:28:06.774Z,3.5
2023-06-09T12:33:54.133Z,3.4
2023-06-09T12:39:39.357Z,3.6
2023-06-09T12:45:24.305Z,3.8
2023-06-09T12:51:09.265Z,3.6
2023-06-09T12:56:54.297Z,3.7
2023-06-09T13:02:39.694Z,3.7
2023-06-09T13:08:27.193Z,3.2
2023-06-09T13:14:12.119Z,3.4
2023-06-09T13:19:56.970Z,3.7
2023-06-09T13:25:43.179Z,3.2
2023-06-09T13:31:28.231Z,3.4
2023-06-09T13:37:13.280Z,3.2
2023-06-09T13:42:58.387Z,3.3
2023-06-09T13:48:43.800Z,3
2023-06-09T13:54:28.874Z,3.1
2023-06-09T14:00:15.112Z,3
2023-06-09T14:06:00.340Z,3
2023-06-09T14:11:45.864Z,3
2023-06-09T14:17:31.087Z,2.9
2023-06-09T14:23:16.170Z,2.7
2023-06-09T14:29:01.119Z,2.8
2023-06-09T14:34:46.128Z,3
2023-06-09T14:40:33.155Z,3.1
2023-06-09T14:46:20.766Z,2.8
2023-06-09T14:52:06.324Z,2.7
2023-06-09T14:57:51.504Z,2.7
2023-06-09T15:03:38.477Z,2.4
2023-06-09T15:09:23.814Z,2.6
2023-06-09T15:15:10.418Z,2.5
2023-06-09T15:20:55.763Z,2.5
2023-06-09T15:26:40.923Z,2.5
2023-06-09T15:32:27.180Z,4.4
2023-06-09T15:38:13.701Z,3
2023-06-09T15:43:59.361Z,2.8
2023-06-09T15:49:44.176Z,2.6
2023-06-09T15:55:29.378Z,2.6
2023-06-09T16:01:14.485Z,2.7
2023-06-09T16:06:59.435Z,2.7
2023-06-09T16:12:44.354Z,2.6
2023-06-09T16:18:29.329Z,2.8
2023-06-09T16:24:14.777Z,2.7
2023-06-09T16:29:59.974Z,2.5
2023-06-09T16:35:44.988Z,2.5
2023-06-09T16:41:29.986Z,2.6
2023-06-09T16:47:14.833Z,2.7
2023-06-09T16:52:59.722Z,2.6
2023-06-09T16:58:44.610Z,2.4
2023-06-09T17:04:29.574Z,2.9
2023-06-09T17:10:14.951Z,2.7
2023-06-09T17:15:59.920Z,2.8
2023-06-09T17:21:45.825Z,2.5
2023-06-09T17:27:30.724Z,2.4
2023-06-09T17:33:15.879Z,2.7
2023-06-09T17:39:00.981Z,2.4
2023-06-09T17:44:45.805Z,2.9
2023-06-09T17:50:30.858Z,2.5
2023-06-09T17:56:15.981Z,2.6
2023-06-09T18:02:01.054Z,2.6
2023-06-09T18:07:46.680Z,2.8
2023-06-09T18:13:31.503Z,2.9
2023-06-09T18:19:16.537Z,3
2023-06-09T18:25:01.452Z,3
2023-06-09T18:30:46.620Z,2.8
2023-06-09T18:36:34.677Z,2.6
2023-06-09T18:42:19.437Z,2.8
2023-06-09T18:48:04.506Z,3.3
2023-06-09T18:53:49.556Z,3.2
2023-06-09T18:59:35.824Z,3.1
2023-06-09T19:05:20.862Z,3.1
2023-06-09T19:11:05.582Z,3.1
2023-06-09T19:16:50.505Z,3.2
2023-06-09T19:22:35.535Z,3.2
2023-06-09T19:28:20.521Z,3.4
2023-06-09T19:34:05.814Z,3.5
2023-06-09T19:39:50.630Z,3.4
2023-06-09T19:45:35.430Z,3.2
2023-06-09T19:51:20.908Z,3.7
2023-06-09T19:57:06.464Z,3.8
2023-06-09T20:02:51.603Z,3.9
2023-06-09T20:08:36.377Z,4
2023-06-09T20:14:21.413Z,3.7
2023-06-09T20:20:06.322Z,4.2
2023-06-09T20:25:52.202Z,3.8
2023-06-09T20:31:37.261Z,3.8
2023-06-09T20:37:22.127Z,4.1
2023-06-09T20:43:07.965Z,3.7
2023-06-09T20:48:52.733Z,4.2
2023-06-09T20:54:37.953Z,4.1
2023-06-09T21:00:23.968Z,3.9
2023-06-09T21:06:08.859Z,4.2
2023-06-09T21:11:54.057Z,4.2
2023-06-09T21:17:39.296Z,4.2
2023-06-09T21:23:24.528Z,4.2
2023-06-09T21:29:09.460Z,4.1
2023-06-09T21:35:02.560Z,4.3
2023-06-09T21:40:47.443Z,4.3
2023-06-09T21:46:32.236Z,4.7
2023-06-09T21:52:17.159Z,4.5
2023-06-09T21:58:02.046Z,4.5
2023-06-09T22:03:47.109Z,4.7
2023-06-09T22:09:32.210Z,4.8
2023-06-09T22:15:17.987Z,4.4
2023-06-09T22:21:02.871Z,4.6
2023-06-09T22:27:00.846Z,4.7
2023-06-09T22:32:46.689Z,5.1
2023-06-09T22:38:31.659Z,4.8
2023-06-09T22:44:16.408Z,5.1
2023-06-09T22:50:12.035Z,4.9
2023-06-09T22:55:57.418Z,5.1
2023-06-09T23:01:42.417Z,4.9
2023-06-09T23:07:27.585Z,4.9
2023-06-09T23:13:12.455Z,4.6
2023-06-09T23:18:57.242Z,4.6
2023-06-09T23:24:42.474Z,4.5
2023-06-09T23:30:27.352Z,4.8
2023-06-09T23:36:13.306Z,4.3
2023-06-09T23:42:01.577Z,4.3
2023-06-09T23:47:46.293Z,4.5
2023-06-09T23:53:31.261Z,4.4
2023-06-09T23:59:16.376Z,4.3
